Latest Weather Observations for Dubbo

IDN60801

Issued at 8:32 pm EDT Thursday 23 February 2017 (issued every 30 minutes, with the page automatically refreshed every 10 minutes)

About weather observations | Map of weather stations | Latest weather observations for NSW | Other Formats
Station Details ID: 065070 Name: DUBBO AIRPORT AWS Lat: -32.22 Lon: 148.58 Height: 284.0 m
Data from the previous 72 hours. | See also: Recent months at Dubbo
Date/Time
EDT
Temp
°C
App
Temp
°C
Dew
Point
°C
Rel
Hum
%
Delta-T
°C
Wind Press
QNH
hPa
Press
MSL
hPa
Rain since
9am
mm
Dir  Spd
km/h
Gust
km/h
Spd
kts
Gust
kts
23/08:30pm 28.9 28.7 9.1 29 11.1 CALM 0 6 0 3 1016.9 1015.3 0.0
23/08:00pm 29.9 28.8 8.3 26 12.0 NNE 4 9 2 5 1016.6 1015.0 0.0
23/07:30pm 32.9 31.2 8.4 22 13.9 NNW 7 9 4 5 1016.4 1014.8 0.0
23/07:00pm 34.8 32.8 8.5 20 15.0 NW 9 13 5 7 1016.3 1014.7 0.0
23/06:30pm 35.5 33.0 8.3 19 15.5 NNW 11 15 6 8 1016.2 1014.6 0.0
23/06:00pm 35.5 33.0 8.3 19 15.5 NNE 11 17 6 9 1016.2 1014.6 0.0
23/05:30pm 36.6 35.1 9.2 19 15.9 NW 7 13 4 7 1016.2 1014.6 0.0
23/05:00pm 35.4 33.7 8.3 19 15.5 N 7 13 4 7 1016.3 1014.7 0.0
23/04:30pm 36.1 33.7 8.8 19 15.8 W 11 19 6 10 1016.5 1014.9 0.0
23/04:00pm 36.5 34.0 8.4 18 16.1 S 11 19 6 10 1016.8 1015.2 0.0
23/03:30pm 35.5 33.6 10.5 22 14.8 W 11 22 6 12 1017.1 1015.6 0.0
23/03:00pm 36.5 35.4 12.0 23 14.8 NW 9 17 5 9 1017.4 1015.9 0.0
23/02:30pm 35.7 34.4 12.6 25 14.1 WNW 11 22 6 12 1017.8 1016.3 0.0
23/02:00pm 35.0 32.6 12.6 26 13.6 NNW 17 26 9 14 1018.1 1016.6 0.0
23/01:30pm 34.4 32.0 12.7 27 13.2 NW 17 32 9 17 1018.5 1017.0 0.0
23/01:00pm 34.1 32.0 13.5 28 12.6 NNW 17 30 9 16 1018.7 1017.2 0.0
23/12:30pm 33.0 30.2 13.1 30 12.1 NNW 20 32 11 17 1019.1 1017.6 0.0
23/12:00pm 32.1 29.3 13.3 31 11.4 NNW 20 30 11 16 1019.7 1018.1 0.0
23/11:30am 31.4 28.7 13.6 33 10.8 NNW 20 28 11 15 1020.0 1018.4 0.0
23/11:00am 30.5 27.4 13.3 35 10.4 NNW 22 33 12 18 1020.1 1018.5 0.0
23/10:30am 29.6 26.6 13.8 38 9.6 NNW 22 30 12 16 1020.2 1018.7 0.0
23/10:00am 29.3 25.8 13.5 38 9.5 NNW 24 33 13 18 1020.2 1018.7 0.0
23/09:30am 28.0 24.9 13.5 41 8.7 N 22 35 12 19 1020.1 1018.5 0.0
23/09:00am 26.3 24.8 13.1 44 7.8 NNE 13 20 7 11 1019.9 1018.3 0.0
23/08:30am 25.1 23.7 12.3 45 7.4 NE 11 17 6 9 1019.5 1018.0 0.0
23/08:00am 23.0 22.2 12.9 53 5.9 ENE 9 13 5 7 1019.4 1017.9 0.0
23/07:30am 20.7 19.3 13.4 63 4.2 ENE 13 15 7 8 1019.0 1017.5 0.0
23/07:00am 18.7 17.7 12.2 66 3.6 NE 9 11 5 6 1018.5 1017.0 0.0
23/06:30am 18.2 16.9 12.4 69 3.3 NE 11 13 6 7 1018.0 1016.5 0.0
23/06:00am 18.2 16.6 11.7 66 3.6 NE 11 13 6 7 1017.7 1016.2 0.0
23/05:30am 19.3 18.1 11.6 61 4.3 NNE 9 11 5 6 1017.5 1016.0 0.0
23/05:00am 20.3 18.2 12.3 60 4.5 NE 15 17 8 9 1016.9 1015.3 0.0
23/04:30am 20.9 18.6 11.8 56 5.1 ENE 15 17 8 9 1016.9 1015.3 0.0
23/04:00am 21.3 18.5 11.3 53 5.6 ENE 17 20 9 11 1017.0 1015.4 0.0
23/03:30am 21.8 19.5 10.3 48 6.4 ENE 13 17 7 9 1017.2 1015.7 0.0
23/03:00am 22.1 19.3 9.9 46 6.7 ENE 15 17 8 9 1017.1 1015.6 0.0
23/02:30am 21.6 19.0 9.5 46 6.6 ENE 13 15 7 8 1017.2 1015.7 0.0
23/02:00am 22.7 20.0 10.2 45 6.9 ENE 15 17 8 9 1017.3 1015.8 0.0
23/01:30am 22.5 20.2 10.6 47 6.6 E 13 15 7 8 1017.3 1015.8 0.0
23/01:00am 21.3 19.6 11.1 52 5.7 ENE 11 13 6 7 1017.3 1015.8 0.0
23/12:30am 21.5 20.3 11.5 53 5.6 E 9 15 5 8 1017.3 1015.8 0.0
23/12:00am 21.9 19.6 11.6 52 5.8 E 15 19 8 10 1017.2 1015.7 0.0
 
Date/Time
EDT
Temp
°C
App
Temp
°C
Dew
Point
°C
Rel
Hum
%
Delta-T
°C
Wind Press
QNH
hPa
Press
MSL
hPa
Rain since
9am
mm
Dir  Spd
km/h
Gust
km/h
Spd
kts
Gust
kts
22/11:30pm 21.5 21.7 10.6 50 6.0 CALM 0 0 0 0 1017.0 1015.4 0.0
22/11:00pm 23.1 23.5 11.2 47 6.7 CALM 0 0 0 0 1017.0 1015.4 0.0
22/10:30pm 23.2 23.5 10.9 46 6.9 CALM 0 0 0 0 1016.8 1015.2 0.0
22/10:00pm 24.0 24.4 11.3 45 7.2 CALM 0 0 0 0 1016.5 1014.9 0.0
22/09:30pm 24.4 24.5 10.3 41 7.9 CALM 0 0 0 0 1016.3 1014.7 0.0
22/09:00pm 25.7 25.7 9.9 37 8.8 CALM 0 0 0 0 1015.8 1014.3 0.0
22/08:30pm 27.5 27.4 9.3 32 10.2 CALM 0 0 0 0 1015.5 1014.0 0.0
22/08:00pm 29.4 27.6 9.5 29 11.3 NW 9 13 5 7 1015.3 1013.8 0.0
22/07:30pm 31.6 29.4 9.2 25 12.7 WNW 11 15 6 8 1015.0 1013.5 0.0
22/07:00pm 32.7 30.0 8.9 23 13.5 NNW 13 19 7 10 1014.9 1013.4 0.0
22/06:30pm 33.1 30.1 7.9 21 14.1 N 13 28 7 15 1014.9 1013.4 0.0
22/06:00pm 33.9 30.9 7.8 20 14.7 N 13 24 7 13 1014.8 1013.3 0.0
22/05:30pm 34.5 32.8 8.3 20 14.9 WSW 7 13 4 7 1014.8 1013.3 0.0
22/05:00pm 34.4 30.2 7.5 19 15.1 NNW 19 37 10 20 1014.9 1013.4 0.0
22/04:30pm 35.3 31.8 8.9 20 15.2 N 17 30 9 16 1015.2 1013.7 0.0
22/04:00pm 35.0 32.4 7.9 19 15.3 N 11 20 6 11 1015.6 1014.1 0.0
22/03:30pm 34.1 31.6 8.0 20 14.7 NNE 11 35 6 19 1016.2 1014.6 0.0
22/03:00pm 34.3 32.3 8.8 21 14.6 NNW 9 20 5 11 1016.6 1015.0 0.0
22/02:30pm 33.5 30.4 8.9 22 14.1 NW 15 30 8 16 1017.1 1015.6 0.0
22/02:00pm 33.1 29.5 8.5 22 13.9 NW 17 26 9 14 1017.5 1016.0 0.0
22/01:30pm 32.7 29.6 8.9 23 13.6 NNW 15 28 8 15 1018.0 1016.5 0.0
22/01:00pm 32.6 29.0 10.6 26 12.8 NNW 20 32 11 17 1018.4 1016.9 0.0
22/12:30pm 31.6 28.1 10.3 27 12.3 N 19 33 10 18 1018.9 1017.4 0.0
22/12:00pm 31.1 27.5 10.4 28 12.0 N 20 30 11 16 1019.4 1017.9 0.0
22/11:30am 30.3 27.0 12.7 34 10.5 N 22 33 12 18 1019.7 1018.1 0.0
22/11:00am 28.9 26.1 13.2 38 9.4 N 20 32 11 17 1020.1 1018.5 0.0
22/10:30am 27.6 25.0 13.2 41 8.6 N 19 32 10 17 1020.5 1019.0 0.0
22/10:00am 26.6 24.5 13.7 45 7.7 N 17 35 9 19 1020.5 1019.0 0.0
22/09:30am 24.9 23.4 14.1 51 6.5 NE 15 22 8 12 1020.5 1019.0 0.0
22/09:00am 23.0 21.1 14.3 58 5.2 NE 17 22 9 12 1020.5 1019.0 0.0
22/08:30am 21.5 19.3 14.4 64 4.2 NE 19 26 10 14 1020.4 1018.9 0.0
22/08:00am 19.9 17.4 14.0 69 3.4 NE 20 28 11 15 1020.1 1018.5 0.0
22/07:30am 18.8 15.9 13.9 73 2.8 ENE 22 30 12 16 1019.3 1017.8 0.0
22/07:00am 18.2 15.2 13.7 75 2.6 ENE 22 32 12 17 1018.9 1017.4 0.0
22/06:30am 18.1 15.4 13.4 74 2.7 ENE 20 32 11 17 1018.5 1017.0 0.0
22/06:00am 18.5 15.0 13.4 72 2.9 ENE 24 32 13 17 1018.0 1016.5 0.0
22/05:30am 18.3 15.5 13.2 72 2.9 ENE 20 26 11 14 1017.8 1016.3 0.0
22/05:00am 17.8 15.4 12.7 72 2.9 ENE 17 24 9 13 1017.6 1016.1 0.0
22/04:30am 18.4 16.0 12.6 69 3.3 ENE 17 22 9 12 1017.6 1016.1 0.0
22/04:00am 18.7 15.9 12.7 68 3.4 ENE 19 28 10 15 1017.8 1016.3 0.0
22/03:30am 18.9 16.9 12.6 67 3.6 ENE 15 19 8 10 1017.9 1016.4 0.0
22/03:00am 19.7 17.3 12.5 63 4.1 ENE 17 24 9 13 1017.9 1016.4 0.0
22/02:30am 19.1 16.8 11.7 62 4.1 ENE 15 22 8 12 1018.0 1016.5 0.0
22/02:00am 18.8 15.2 8.2 50 5.5 E 17 19 9 10 1017.9 1016.4 0.0
22/01:30am 18.5 14.9 6.7 46 6.0 E 15 19 8 10 1018.1 1016.6 0.0
22/01:00am 17.7 14.2 5.3 44 6.1 ENE 13 17 7 9 1018.2 1016.7 0.0
22/12:30am 16.7 12.3 0.4 33 7.2 ESE 13 15 7 8 1018.3 1016.8 0.0
22/12:00am 15.2 10.3 2.1 41 5.9 ENE 17 20 9 11 1018.5 1017.0 0.0
 
Date/Time
EDT
Temp
°C
App
Temp
°C
Dew
Point
°C
Rel
Hum
%
Delta-T
°C
Wind Press
QNH
hPa
Press
MSL
hPa
Rain since
9am
mm
Dir  Spd
km/h
Gust
km/h
Spd
kts
Gust
kts
21/11:30pm 16.0 14.1 0.6 35 6.8 CALM 0 0 0 0 1017.9 1016.4 0.0
21/11:00pm 17.7 15.2 -1.0 28 8.0 NE 2 7 1 4 1017.8 1016.3 0.0
21/10:30pm 20.4 15.6 -2.6 21 9.8 S 13 15 7 8 1017.8 1016.3 0.0
21/10:00pm 20.8 16.0 -2.3 21 9.9 SSW 13 15 7 8 1017.7 1016.2 0.0
21/09:30pm 21.0 16.2 -2.8 20 10.2 SSW 13 15 7 8 1017.7 1016.2 0.0
21/09:00pm 22.0 17.7 -2.0 20 10.5 SSW 11 13 6 7 1017.5 1016.0 0.0
21/08:30pm 23.0 19.1 -1.8 19 11.0 SSW 9 11 5 6 1017.5 1016.0 0.0
21/08:00pm 23.9 20.3 -1.8 18 11.5 SW 7 11 4 6 1017.2 1015.7 0.0
21/07:30pm 27.2 23.6 -3.6 13 13.7 NNE 6 7 3 4 1016.8 1015.2 0.0
21/07:00pm 28.8 24.5 -4.6 11 14.8 NNE 9 15 5 8 1016.6 1015.0 0.0
21/06:30pm 29.6 25.8 -5.2 10 15.3 N 6 13 3 7 1016.4 1014.8 0.0
21/06:00pm 30.6 27.8 -3.2 11 15.5 E 2 7 1 4 1016.1 1014.5 0.0
21/05:30pm 30.4 26.8 -3.3 11 15.4 ENE 6 15 3 8 1016.2 1014.6 0.0
21/05:00pm 30.2 25.7 -3.5 11 15.4 NNE 11 22 6 12 1016.1 1014.5 0.0
21/04:30pm 30.3 26.7 -3.4 11 15.4 NE 6 17 3 9 1016.3 1014.7 0.0
21/04:00pm 29.8 26.0 -3.8 11 15.2 NNE 7 13 4 7 1016.4 1014.8 0.0
21/03:30pm 29.8 26.3 -2.6 12 15.0 NE 6 13 3 7 1016.7 1015.1 0.0
21/03:00pm 29.3 24.6 -1.9 13 14.5 N 13 20 7 11 1017.0 1015.4 0.0
21/02:30pm 29.0 24.6 -2.2 13 14.4 NW 11 17 6 9 1017.4 1015.9 0.0
21/02:00pm 28.4 23.7 -1.6 14 13.9 NNE 13 22 7 12 1017.9 1016.4 0.0
21/01:30pm 27.5 22.9 -1.4 15 13.4 E 13 26 7 14 1018.3 1016.8 0.0
21/01:00pm 27.2 22.5 -1.7 15 13.3 ESE 13 24 7 13 1018.7 1017.2 0.0
21/12:30pm 25.8 22.2 -1.9 16 12.6 SSW 7 13 4 7 1019.1 1017.6 0.0
21/12:00pm 25.4 21.5 -1.4 17 12.2 ENE 9 20 5 11 1019.7 1018.1 0.0
21/11:30am 26.0 22.6 -0.9 17 12.4 SSW 7 15 4 8 1020.2 1018.7 0.0
21/11:00am 23.5 20.3 0.6 22 10.7 SSW 7 13 4 7 1020.4 1018.9 0.0
21/10:30am 22.9 19.5 1.9 25 10.0 SE 9 15 5 8 1020.5 1019.0 0.0
21/10:00am 20.1 15.8 1.0 28 8.7 ESE 13 19 7 10 1020.5 1019.0 0.0
21/09:30am 18.9 14.0 1.9 32 7.8 ESE 17 20 9 11 1020.4 1018.9 0.0
21/09:00am 17.6 11.7 1.6 34 7.2 ESE 22 28 12 15 1020.0 1018.4 0.0
21/08:30am 15.6 10.5 1.0 37 6.4 ESE 17 22 9 12 1019.4 1017.9 0.0
21/08:00am 13.3 8.6 0.7 42 5.4 ESE 15 20 8 11 1019.0 1017.5 0.0
21/07:30am 11.2 6.5 0.9 49 4.4 ESE 15 19 8 10 1018.6 1017.1 0.0
21/07:00am 10.2 4.7 0.5 51 4.0 ESE 19 20 10 11 1018.1 1016.6 0.0
21/06:30am 10.4 5.2 0.4 50 4.1 SE 17 22 9 12 1017.8 1016.3 0.0
21/06:00am 10.4 5.6 0.4 50 4.1 ESE 15 17 8 9 1017.8 1016.3 0.0
21/05:30am 10.5 5.4 0.5 50 4.2 ESE 17 19 9 10 1017.5 1016.0 0.0
21/05:00am 10.7 5.1 0.2 48 4.3 ESE 19 20 10 11 1017.4 1015.9 0.0
21/04:30am 12.3 6.7 0.1 43 5.1 ESE 19 22 10 12 1017.1 1015.6 0.0
21/04:00am 12.4 6.8 0.2 43 5.1 SE 19 22 10 12 1016.9 1015.3 0.0
21/03:30am 12.5 6.8 -0.4 41 5.4 SE 19 20 10 11 1016.9 1015.3 0.0
21/03:00am 12.4 7.1 -0.5 41 5.3 ESE 17 19 9 10 1016.9 1015.3 0.0
21/02:30am 12.8 7.5 -0.4 40 5.5 SE 17 19 9 10 1017.1 1015.6 0.0
21/02:00am 12.2 6.9 -0.3 42 5.2 ESE 17 19 9 10 1017.2 1015.7 0.0
21/01:30am 13.7 8.8 -0.7 37 6.0 SE 15 17 8 9 1017.4 1015.9 0.0
21/01:00am 14.2 8.9 -0.6 36 6.2 SE 17 20 9 11 1017.5 1016.0 0.0
21/12:30am 13.5 8.2 -0.5 38 5.9 SE 17 17 9 9 1017.6 1016.1 0.0
21/12:00am 14.1 8.8 -0.7 36 6.2 SE 17 19 9 10 1017.6 1016.1 0.0
 
Date/Time
EDT
Temp
°C
App
Temp
°C
Dew
Point
°C
Rel
Hum
%
Delta-T
°C
Wind Press
QNH
hPa
Press
MSL
hPa
Rain since
9am
mm
Dir  Spd
km/h
Gust
km/h
Spd
kts
Gust
kts
20/11:30pm 14.0 9.1 -0.4 37 6.1 ESE 15 17 8 9 1017.7 1016.2 0.0
20/11:00pm 16.6 11.6 -1.0 30 7.5 SSE 15 17 8 9 1017.5 1016.0 0.0
20/10:30pm 17.1 12.1 -1.1 29 7.8 SE 15 20 8 11 1017.2 1015.7 0.0
20/10:00pm 16.9 12.3 -1.2 29 7.7 SSE 13 17 7 9 1016.9 1015.3 0.0
20/09:30pm 16.7 12.1 -1.4 29 7.7 S 13 15 7 8 1016.6 1015.0 0.0
20/09:00pm 18.2 13.5 -2.1 25 8.6 S 13 15 7 8 1016.2 1014.6 0.0

Other Formats:

Comma delimited format used in spreadsheet applications
http://www.bom.gov.au/fwo/IDN60801/IDN60801.95719.axf

JavaScript Object Notation format (JSON) in row-major order
http://www.bom.gov.au/fwo/IDN60801/IDN60801.95719.json